Time;durP1;ratioP1;P1;durP2;ratioP2;P2;SDS_P1;SDS_P2;PMS_P1;PMS_P2;Temp;Humidity;BMP_temperature;BMP_pressure;BME280_temperature;BME280_humidity;BME280_pressure;Samples;Min_cycle;Max_cycle;Signal;HPM_P1;HPM_P2
2023/08/21 00:01:03;;;;;;;5.30;4.90;;;;;;;24.22;73.67;100344.35;84067;283;138542;-69
2023/08/21 00:03:04;;;;;;;6.60;5.80;;;;;;;24.21;73.99;100345.98;84205;284;23710;-68
2023/08/21 00:05:07;;;;;;;6.50;5.40;;;;;;;24.18;74.37;100344.20;84093;284;137090;-69
2023/08/21 00:07:10;;;;;;;6.30;5.80;;;;;;;24.18;74.62;100339.89;84207;283;25297;-67
2023/08/21 00:09:12;;;;;;;6.50;6.00;;;;;;;24.18;74.65;100342.89;84215;283;136217;-66
2023/08/21 00:11:14;;;;;;;8.20;5.70;;;;;;;24.15;74.81;100346.93;84287;283;24133;-68
2023/08/21 00:13:15;;;;;;;6.30;5.70;;;;;;;24.11;75.15;100344.29;84241;284;137654;-64
2023/08/21 00:15:19;;;;;;;6.90;5.60;;;;;;;24.08;75.14;100347.92;84162;285;23748;-70
2023/08/21 00:17:20;;;;;;;11.20;5.10;;;;;;;24.09;74.89;100347.23;84110;283;136399;-69
2023/08/21 00:19:22;;;;;;;5.40;5.00;;;;;;;24.13;74.84;100349.02;84244;283;22580;-72
2023/08/21 00:21:24;;;;;;;5.40;5.00;;;;;;;24.16;74.80;100352.75;83982;283;138119;-67
2023/08/21 00:23:26;;;;;;;6.00;5.40;;;;;;;24.21;74.36;100357.85;84241;285;22564;-67
2023/08/21 00:25:28;;;;;;;6.10;5.70;;;;;;;24.25;74.25;100359.45;84191;283;136951;-68
2023/08/21 00:27:30;;;;;;;6.20;5.70;;;;;;;24.28;74.03;100360.77;84295;283;24251;-67
2023/08/21 00:29:32;;;;;;;5.20;4.90;;;;;;;24.29;74.03;100361.30;84116;284;137272;-67
2023/08/21 00:31:33;;;;;;;5.10;4.80;;;;;;;24.30;74.06;100358.89;84231;284;22572;-76
2023/08/21 00:33:37;;;;;;;5.80;5.40;;;;;;;24.30;74.59;100360.38;84031;284;137611;-68
2023/08/21 00:35:38;;;;;;;5.90;5.50;;;;;;;24.28;75.06;100356.46;84378;283;22644;-68
2023/08/21 00:37:41;;;;;;;6.40;5.20;;;;;;;24.27;75.21;100363.81;84171;283;136459;-65
2023/08/21 00:39:43;;;;;;;8.30;4.80;;;;;;;24.27;75.20;100360.38;84230;272;22610;-73
2023/08/21 00:41:45;;;;;;;6.40;5.60;;;;;;;24.25;75.60;100363.98;84119;284;136420;-68
2023/08/21 00:43:47;;;;;;;6.60;5.10;;;;;;;24.23;75.97;100362.10;84671;283;25182;-67
2023/08/21 00:45:50;;;;;;;5.50;5.20;;;;;;;24.22;76.03;100364.40;84846;283;139378;-65
2023/08/21 00:47:52;;;;;;;6.40;5.70;;;;;;;24.21;76.48;100360.24;84253;284;22545;-74
2023/08/21 00:49:54;;;;;;;6.20;5.80;;;;;;;24.20;76.58;100357.95;84272;283;136994;-67
2023/08/21 00:51:56;;;;;;;5.60;5.20;;;;;;;24.20;77.01;100359.97;84345;283;25258;-66
2023/08/21 00:53:58;;;;;;;6.00;5.40;;;;;;;24.20;77.34;100362.91;85768;283;138052;-66
2023/08/21 00:56:01;;;;;;;6.10;5.70;;;;;;;24.21;77.54;100359.92;84177;285;25293;-68
2023/08/21 00:58:04;;;;;;;6.90;6.00;;;;;;;24.19;77.67;100353.39;84342;283;22557;-67
2023/08/21 01:00:10;;;;;;;5.90;5.50;;;;;;;24.17;77.90;100355.92;84193;276;137119;-70
2023/08/21 01:02:12;;;;;;;6.50;6.00;;;;;;;24.15;77.83;100356.29;84240;284;24073;-67
2023/08/21 01:04:14;;;;;;;6.80;6.30;;;;;;;24.14;77.95;100356.14;84075;284;136683;-67
2023/08/21 01:06:16;;;;;;;6.10;5.70;;;;;;;24.06;78.23;100344.64;84316;282;24225;-69
2023/08/21 01:08:33;;;;;;;5.80;5.50;;;;;;;24.10;78.22;100352.02;84142;282;141740;-66
2023/08/21 01:10:47;;;;;;;6.10;4.90;;;;;;;24.07;78.44;100355.30;84252;284;22630;-72
2023/08/21 01:13:01;;;;;;;4.70;4.50;;;;;;;24.03;78.57;100350.19;84076;283;136801;-70
2023/08/21 01:15:06;;;;;;;6.20;5.90;;;;;;;24.02;78.81;100348.88;84196;282;25197;-67
2023/08/21 01:17:12;;;;;;;6.80;5.90;;;;;;;24.02;78.75;100348.29;84042;283;136868;-67
2023/08/21 01:19:31;;;;;;;6.10;5.60;;;;;;;24.01;79.07;100346.82;84105;283;25252;-69
2023/08/21 01:21:33;;;;;;;5.90;5.60;;;;;;;23.99;79.49;100348.79;84274;283;138541;-66
2023/08/21 01:23:36;;;;;;;6.30;5.90;;;;;;;23.95;79.72;100349.67;84178;284;22552;-68
2023/08/21 01:25:40;;;;;;;5.60;5.20;;;;;;;23.92;79.79;100348.33;84199;284;138531;-68
2023/08/21 01:27:48;;;;;;;5.00;4.60;;;;;;;23.89;79.89;100354.38;84199;284;22647;-66
2023/08/21 01:29:51;;;;;;;6.20;5.80;;;;;;;23.87;79.86;100354.98;84218;283;137123;-67
2023/08/21 01:32:07;;;;;;;6.10;5.70;;;;;;;23.80;79.96;100347.32;84235;283;24140;-71
2023/08/21 01:34:11;;;;;;;6.60;6.00;;;;;;;23.83;80.29;100355.86;84242;283;22564;-66
2023/08/21 01:36:14;;;;;;;6.80;6.30;;;;;;;23.82;80.43;100361.63;84261;283;137311;-67
2023/08/21 01:38:16;;;;;;;5.90;5.60;;;;;;;23.78;80.47;100361.89;84309;284;25183;-65
2023/08/21 01:40:22;;;;;;;5.80;5.50;;;;;;;23.75;80.82;100365.31;84196;283;137031;-65
2023/08/21 01:42:24;;;;;;;5.80;5.40;;;;;;;23.76;80.83;100369.83;84332;283;24136;-68
2023/08/21 01:44:26;;;;;;;6.10;5.60;;;;;;;23.75;80.83;100371.73;84133;283;137232;-64
2023/08/21 01:46:29;;;;;;;5.80;5.30;;;;;;;23.73;80.73;100370.77;84150;283;22710;-64
2023/08/21 01:48:30;;;;;;;6.00;5.50;;;;;;;23.75;80.54;100372.06;84130;284;136678;-67
2023/08/21 01:50:32;;;;;;;6.30;5.80;;;;;;;23.75;80.54;100372.33;84264;284;22602;-68
2023/08/21 01:52:34;;;;;;;5.80;5.30;;;;;;;23.69;80.37;100363.70;84173;284;137291;-68
2023/08/21 01:54:37;;;;;;;6.10;5.60;;;;;;;23.76;80.32;100377.29;84297;284;22539;-68
2023/08/21 01:56:39;;;;;;;6.30;5.90;;;;;;;23.77;80.16;100376.09;84146;284;137557;-64
2023/08/21 01:58:40;;;;;;;9.80;6.10;;;;;;;23.77;80.13;100377.14;84139;284;22648;-68
2023/08/21 02:00:46;;;;;;;6.90;6.30;;;;;;;23.78;80.10;100379.52;84047;283;136639;-67
2023/08/21 02:02:47;;;;;;;6.20;5.80;;;;;;;23.77;79.92;100376.64;84213;282;25374;-66
2023/08/21 02:04:49;;;;;;;6.80;6.40;;;;;;;23.76;80.00;100371.02;84171;282;138122;-67
2023/08/21 02:06:51;;;;;;;6.70;6.10;;;;;;;23.74;80.22;100370.77;84185;283;25259;-66
2023/08/21 02:08:53;;;;;;;6.10;5.80;;;;;;;23.74;80.15;100372.89;84164;283;137726;-67
2023/08/21 02:10:54;;;;;;;6.40;5.90;;;;;;;23.72;80.28;100371.58;84153;284;24105;-66
2023/08/21 02:12:59;;;;;;;;;;;;;;;23.71;80.31;100370.45;84066;283;136931;-67
2023/08/21 02:15:01;;;;;;;6.90;6.40;;;;;;;23.68;80.43;100372.57;84007;285;22680;-65
2023/08/21 02:17:06;;;;;;;5.60;5.30;;;;;;;23.65;80.66;100374.31;83984;284;137414;-64
2023/08/21 02:19:08;;;;;;;8.90;6.60;;;;;;;23.66;80.75;100376.39;84271;283;25178;-66
2023/08/21 02:21:10;;;;;;;6.50;5.70;;;;;;;23.68;80.63;100377.89;84111;283;137078;-65
2023/08/21 02:23:12;;;;;;;6.20;5.80;;;;;;;23.70;80.58;100376.05;84260;283;22575;-66
2023/08/21 02:25:14;;;;;;;5.50;5.10;;;;;;;23.72;80.50;100376.77;83755;283;693464;-67
2023/08/21 02:27:16;;;;;;;6.50;6.00;;;;;;;23.74;80.54;100379.58;84189;283;24136;-67
2023/08/21 02:29:19;;;;;;;5.50;5.20;;;;;;;23.73;80.89;100379.73;83987;282;138408;-65
2023/08/21 02:31:20;;;;;;;6.40;5.90;;;;;;;23.71;80.84;100382.52;84045;282;22550;-64
2023/08/21 02:33:22;;;;;;;6.20;5.80;;;;;;;23.70;80.98;100377.40;84032;282;137521;-63
2023/08/21 02:35:24;;;;;;;7.40;6.10;;;;;;;23.72;80.96;100377.40;84005;285;25611;-69
2023/08/21 02:37:26;;;;;;;7.10;6.40;;;;;;;23.71;80.97;100376.71;84090;285;136825;-65
2023/08/21 02:39:29;;;;;;;7.80;6.20;;;;;;;23.71;81.16;100377.19;84421;283;22813;-68
2023/08/21 02:41:31;;;;;;;8.00;5.90;;;;;;;23.69;81.11;100375.39;84186;283;137443;-66
2023/08/21 02:43:34;;;;;;;6.50;6.10;;;;;;;23.69;81.13;100373.55;84128;284;22942;-65
2023/08/21 02:45:35;;;;;;;6.40;6.00;;;;;;;23.69;81.17;100374.09;83950;274;137219;-66
2023/08/21 02:47:38;;;;;;;6.30;5.90;;;;;;;23.69;81.27;100375.55;84014;284;22567;-66
2023/08/21 02:49:41;;;;;;;6.50;6.10;;;;;;;23.68;81.32;100374.91;83952;285;137265;-66
2023/08/21 02:51:42;;;;;;;5.80;5.40;;;;;;;23.68;81.56;100380.34;84079;273;26199;-64
2023/08/21 02:53:45;;;;;;;5.80;5.40;;;;;;;23.69;81.54;100379.48;84009;283;137545;-66
2023/08/21 02:55:47;;;;;;;6.40;6.00;;;;;;;23.70;81.65;100375.23;84155;284;25139;-66
2023/08/21 02:57:49;;;;;;;8.50;6.40;;;;;;;23.70;81.61;100373.05;84114;283;137379;-65
2023/08/21 02:59:51;;;;;;;6.50;6.10;;;;;;;23.71;81.65;100372.73;84250;283;22551;-66
2023/08/21 03:01:53;;;;;;;5.70;5.20;;;;;;;23.70;81.88;100372.51;84018;283;136559;-65
2023/08/21 03:03:55;;;;;;;5.80;5.40;;;;;;;23.69;82.03;100370.55;84231;282;25259;-70
2023/08/21 03:05:56;;;;;;;5.70;5.40;;;;;;;23.61;82.13;100357.18;84041;284;137370;-67
2023/08/21 03:07:58;;;;;;;5.70;5.40;;;;;;;23.66;82.23;100365.66;84274;283;24099;-68
2023/08/21 03:10:02;;;;;;;6.20;5.80;;;;;;;23.66;82.38;100368.33;84048;283;137091;-66
2023/08/21 03:12:04;;;;;;;6.10;5.70;;;;;;;23.68;82.40;100367.08;84011;272;139061;-63
2023/08/21 03:14:08;;;;;;;6.90;6.30;;;;;;;23.70;82.44;100367.67;84130;284;22655;-66
2023/08/21 03:16:10;;;;;;;7.10;6.50;;;;;;;23.71;82.34;100367.17;84071;283;137435;-66
2023/08/21 03:18:12;;;;;;;6.30;6.00;;;;;;;23.72;82.18;100365.49;84280;284;25198;-66
2023/08/21 03:20:14;;;;;;;6.80;6.40;;;;;;;23.78;82.31;100366.95;84158;283;137370;-64
2023/08/21 03:22:16;;;;;;;6.70;5.90;;;;;;;23.87;82.11;100362.98;84264;283;22600;-67
2023/08/21 03:24:18;;;;;;;5.90;5.60;;;;;;;24.00;81.78;100362.98;84057;283;138433;-69
2023/08/21 03:26:20;;;;;;;7.40;6.80;;;;;;;24.14;81.14;100367.02;84314;283;22662;-67
2023/08/21 03:28:22;;;;;;;8.00;6.60;;;;;;;24.29;80.48;100370.57;84206;283;137422;-66
2023/08/21 03:30:24;;;;;;;7.30;6.60;;;;;;;24.44;79.80;100363.64;84085;284;22563;-67
2023/08/21 03:32:26;;;;;;;7.00;6.40;;;;;;;24.62;79.17;100364.31;83921;284;136485;-68
2023/08/21 03:34:28;;;;;;;7.60;6.90;;;;;;;24.80;78.34;100366.39;84087;284;22551;-66
2023/08/21 03:36:33;;;;;;;6.60;6.00;;;;;;;24.98;77.30;100371.94;83963;283;137758;-67
2023/08/21 03:38:36;;;;;;;7.30;6.70;;;;;;;25.12;76.37;100370.80;84292;282;22746;-66
2023/08/21 03:40:39;;;;;;;7.50;6.90;;;;;;;25.17;75.68;100372.67;84213;282;136475;-66
2023/08/21 03:42:40;;;;;;;6.60;6.20;;;;;;;25.16;75.80;100370.89;84186;283;23103;-66
2023/08/21 03:44:43;;;;;;;7.10;6.40;;;;;;;25.23;75.86;100373.08;84151;283;137865;-64
2023/08/21 03:46:44;;;;;;;6.10;5.70;;;;;;;25.39;75.37;100368.53;84241;283;25141;-67
2023/08/21 03:48:46;;;;;;;6.60;6.20;;;;;;;25.60;74.73;100369.54;83927;283;137763;-66
2023/08/21 03:50:50;;;;;;;7.40;6.80;;;;;;;25.84;73.50;100367.53;84148;280;23880;-66
2023/08/21 03:52:52;;;;;;;7.60;7.10;;;;;;;26.09;72.34;100368.21;84120;282;136519;-65
2023/08/21 03:54:56;;;;;;;6.60;6.20;;;;;;;26.37;71.41;100368.80;84254;284;22556;-64
2023/08/21 03:56:57;;;;;;;8.50;6.60;;;;;;;26.60;70.12;100361.45;84188;284;136552;-67
2023/08/21 03:59:00;;;;;;;8.00;6.70;;;;;;;26.75;69.10;100366.67;84215;283;22589;-67
2023/08/21 04:01:02;;;;;;;7.30;6.10;;;;;;;26.81;68.54;100361.98;83979;283;136392;-68
2023/08/21 04:03:04;;;;;;;6.80;6.20;;;;;;;26.91;68.51;100366.30;83949;280;25228;-65
2023/08/21 04:05:07;;;;;;;8.20;6.80;;;;;;;27.06;67.88;100370.30;84092;282;136379;-67
2023/08/21 04:07:08;;;;;;;6.30;5.80;;;;;;;27.18;66.92;100372.27;84213;283;22556;-65
2023/08/21 04:09:12;;;;;;;6.40;6.00;;;;;;;27.24;66.50;100373.17;84150;283;136580;-66
2023/08/21 04:11:16;;;;;;;6.60;6.10;;;;;;;27.28;66.10;100369.94;83958;286;23597;-68
2023/08/21 04:13:18;;;;;;;6.60;6.00;;;;;;;27.27;66.25;100375.45;84041;283;136991;-68
2023/08/21 04:15:20;;;;;;;6.70;6.20;;;;;;;27.24;65.95;100370.55;84202;283;22564;-71
2023/08/21 04:17:22;;;;;;;5.80;5.30;;;;;;;27.20;65.71;100373.57;83927;283;137813;-68
2023/08/21 04:19:29;;;;;;;5.60;5.00;;;;;;;27.14;65.54;100372.67;84305;282;22558;-66
2023/08/21 04:21:31;;;;;;;5.20;4.80;;;;;;;27.05;66.02;100380.16;83991;281;136284;-68
2023/08/21 04:23:33;;;;;;;5.40;5.00;;;;;;;27.07;66.02;100380.40;84101;285;22552;-67
2023/08/21 04:25:35;;;;;;;8.70;5.70;;;;;;;27.13;65.62;100376.26;84092;283;137190;-66
2023/08/21 04:27:37;;;;;;;5.90;5.50;;;;;;;27.19;65.40;100379.05;84168;282;22642;-72
2023/08/21 04:29:39;;;;;;;7.70;5.80;;;;;;;27.29;65.21;100379.52;84003;272;137592;-65
2023/08/21 04:31:41;;;;;;;5.50;5.00;;;;;;;27.41;64.18;100376.92;84332;282;22648;-70
2023/08/21 04:33:43;;;;;;;6.40;5.60;;;;;;;27.47;63.66;100376.59;83997;282;136583;-66
2023/08/21 04:35:45;;;;;;;6.30;5.70;;;;;;;27.54;63.72;100378.48;84213;284;22575;-67
2023/08/21 04:37:47;;;;;;;5.40;4.90;;;;;;;27.71;63.29;100377.23;84016;283;137609;-66
2023/08/21 04:39:52;;;;;;;6.70;5.50;;;;;;;27.78;62.47;100377.77;84256;283;22535;-67
2023/08/21 04:41:54;;;;;;;5.90;5.40;;;;;;;27.75;62.50;100375.73;84130;283;135563;-68
2023/08/21 04:43:58;;;;;;;5.80;5.40;;;;;;;27.73;62.66;100378.48;84153;284;22665;-63
2023/08/21 04:46:00;;;;;;;7.80;5.90;;;;;;;27.76;62.75;100383.71;84104;283;137685;-67
2023/08/21 04:48:04;;;;;;;5.80;5.40;;;;;;;27.87;62.65;100381.23;84026;283;136673;-65
2023/08/21 04:50:07;;;;;;;6.30;5.90;;;;;;;28.02;61.51;100380.56;84243;277;22578;-70
2023/08/21 04:52:09;;;;;;;6.60;5.00;;;;;;;28.14;61.19;100382.14;84040;283;135565;-66
2023/08/21 04:54:11;;;;;;;5.40;5.00;;;;;;;28.31;60.49;100378.83;84078;282;22581;-66
2023/08/21 04:56:13;;;;;;;6.00;5.60;;;;;;;28.45;59.98;100381.31;84104;283;137609;-67
2023/08/21 04:58:16;;;;;;;6.40;5.40;;;;;;;28.61;59.47;100375.19;83982;285;25784;-71
2023/08/21 05:00:19;;;;;;;6.60;5.40;;;;;;;28.75;58.84;100381.31;84118;283;136538;-69
2023/08/21 05:02:20;;;;;;;6.10;5.60;;;;;;;28.84;58.41;100383.94;84242;282;25135;-68
2023/08/21 05:04:23;;;;;;;5.50;5.20;;;;;;;28.91;57.90;100380.92;84112;282;136489;-70
2023/08/21 05:06:25;;;;;;;6.40;5.70;;;;;;;28.95;57.75;100379.48;84309;284;23031;-72
2023/08/21 05:08:27;;;;;;;5.90;5.50;;;;;;;28.98;57.98;100380.44;84062;284;136530;-67
2023/08/21 05:10:29;;;;;;;6.90;6.30;;;;;;;29.05;57.73;100383.52;84100;283;24102;-67
2023/08/21 05:12:31;;;;;;;7.00;6.40;;;;;;;29.16;57.83;100382.33;83987;283;135874;-72
2023/08/21 05:14:33;;;;;;;5.60;5.10;;;;;;;29.26;56.99;100381.47;83952;283;25229;-73
2023/08/21 05:16:35;;;;;;;6.40;6.00;;;;;;;29.27;57.11;100379.30;83923;283;136062;-71
2023/08/21 05:18:37;;;;;;;6.30;5.70;;;;;;;29.30;56.78;100383.14;84108;283;24140;-76
2023/08/21 05:20:39;;;;;;;6.10;5.70;;;;;;;29.25;56.94;100380.40;84054;283;136955;-75
2023/08/21 05:22:41;;;;;;;6.90;6.30;;;;;;;29.20;57.08;100380.45;84190;283;22659;-76
2023/08/21 05:24:43;;;;;;;7.20;6.50;;;;;;;29.15;57.86;100379.55;84181;282;136155;-72
2023/08/21 05:26:45;;;;;;;6.10;5.80;;;;;;;29.12;57.84;100381.73;84163;283;22552;-72
2023/08/21 05:28:47;;;;;;;6.50;6.10;;;;;;;29.12;58.01;100377.96;83931;283;136668;-74
2023/08/21 05:30:49;;;;;;;6.50;6.10;;;;;;;29.13;58.09;100379.42;84365;282;24139;-72
2023/08/21 05:32:52;;;;;;;7.00;6.40;;;;;;;29.20;58.47;100381.58;83996;281;136689;-74
2023/08/21 05:34:54;;;;;;;7.00;6.40;;;;;;;29.31;58.05;100385.73;83976;284;22583;-70
2023/08/21 05:36:56;;;;;;;5.70;5.30;;;;;;;29.47;57.73;100383.23;83908;283;135482;-75
2023/08/21 05:39:05;;;;;;;6.60;6.20;;;;;;;29.65;56.87;100384.36;85147;283;22552;-73
2023/08/21 05:41:09;;;;;;;6.40;5.90;;;;;;;29.75;56.95;100384.48;83936;283;136360;-71
2023/08/21 05:43:10;;;;;;;6.10;5.60;;;;;;;29.84;56.46;100384.71;84135;283;22570;-73
2023/08/21 05:45:15;;;;;;;7.50;6.60;;;;;;;29.91;56.79;100382.52;83981;273;136492;-73
2023/08/21 05:47:17;;;;;;;9.70;7.50;;;;;;;30.08;56.01;100381.30;84214;283;24098;-72
2023/08/21 05:49:19;;;;;;;7.00;6.50;;;;;;;30.29;55.35;100382.24;84025;282;137539;-70
2023/08/21 05:51:20;;;;;;;8.00;6.00;;;;;;;30.43;54.73;100381.80;84280;281;22548;-75
2023/08/21 05:53:23;;;;;;;6.20;5.80;;;;;;;30.53;54.36;100379.85;84136;281;135985;-74
2023/08/21 05:55:26;;;;;;;8.10;6.20;;;;;;;30.56;53.98;100383.99;84174;283;22657;-73
2023/08/21 05:57:28;;;;;;;6.40;6.00;;;;;;;30.52;53.97;100383.52;84182;282;138101;-70
2023/08/21 05:59:32;;;;;;;7.20;5.60;;;;;;;30.48;54.20;100384.88;84314;282;22651;-71
2023/08/21 06:01:35;;;;;;;;;;;;;;;30.50;54.47;100379.46;84088;283;137093;-71
2023/08/21 06:03:37;;;;;;;6.20;5.60;;;;;;;30.53;54.17;100382.36;84067;282;25233;-63
2023/08/21 06:05:54;;;;;;;5.60;5.20;;;;;;;30.48;54.06;100381.33;83972;283;137648;-65
2023/08/21 06:07:56;;;;;;;6.40;5.90;;;;;;;30.37;54.61;100380.65;84067;283;25007;-66
2023/08/21 06:09:58;;;;;;;5.90;5.40;;;;;;;30.36;55.11;100380.23;84049;284;136040;-67
2023/08/21 06:12:03;;;;;;;6.10;5.70;;;;;;;30.41;54.75;100379.38;83966;284;25374;-66
2023/08/21 06:14:06;;;;;;;8.60;6.70;;;;;;;30.47;54.64;100376.42;84366;282;25097;-61
2023/08/21 06:16:07;;;;;;;6.50;6.00;;;;;;;30.51;55.03;100379.10;84094;281;136628;-61
2023/08/21 06:18:11;;;;;;;6.10;5.50;;;;;;;30.54;54.96;100375.89;84206;282;22545;-72
2023/08/21 06:20:14;;;;;;;6.60;6.00;;;;;;;30.61;54.51;100379.03;84204;282;136871;-65
2023/08/21 06:22:15;;;;;;;7.20;5.40;;;;;;;30.62;53.96;100379.95;84027;284;25235;-65
2023/08/21 06:24:17;;;;;;;6.00;5.70;;;;;;;30.59;54.13;100381.36;83959;282;136455;-67
2023/08/21 06:28:44;;;;;;;6.60;6.00;;;;;;;30.31;55.09;100381.56;82721;305;545893;-64
2023/08/21 06:30:46;;;;;;;5.90;5.50;;;;;;;30.06;56.22;100383.02;83479;295;22562;-71
2023/08/21 06:32:48;;;;;;;6.40;5.80;;;;;;;29.83;56.43;100363.63;83282;296;136269;-66
2023/08/21 06:34:51;;;;;;;6.10;5.30;;;;;;;29.95;57.06;100384.62;83398;296;22562;-68
2023/08/21 06:36:53;;;;;;;6.90;6.40;;;;;;;30.06;56.60;100383.36;83413;295;135464;-65
2023/08/21 06:38:55;;;;;;;6.00;5.70;;;;;;;30.08;56.77;100387.77;83321;288;22863;-70
2023/08/21 06:40:57;;;;;;;6.40;6.00;;;;;;;30.14;56.55;100388.11;83276;295;135665;-69
2023/08/21 06:42:59;;;;;;;7.60;6.40;;;;;;;30.15;56.81;100385.23;83010;295;584452;-70
2023/08/21 06:45:05;;;;;;;7.50;7.00;;;;;;;30.15;56.95;100383.85;83464;295;139735;-64
2023/08/21 06:47:07;;;;;;;6.40;5.70;;;;;;;30.18;56.84;100381.63;84120;287;25224;-64
2023/08/21 06:49:09;;;;;;;6.80;6.20;;;;;;;30.22;56.63;100380.41;84113;286;136184;-66
2023/08/21 06:51:11;;;;;;;7.00;6.40;;;;;;;30.34;56.39;100383.97;84070;287;23510;-80
2023/08/21 06:53:16;;;;;;;5.80;5.40;;;;;;;30.42;56.05;100381.48;83788;287;136075;-68
2023/08/21 06:55:19;;;;;;;6.30;5.80;;;;;;;30.44;55.96;100383.02;83801;288;25261;-67
2023/08/21 06:57:21;;;;;;;6.10;5.50;;;;;;;30.38;55.96;100379.70;83828;287;136425;-69
2023/08/21 06:59:24;;;;;;;9.00;6.20;;;;;;;30.29;55.94;100374.42;84074;287;23241;-69
2023/08/21 07:01:25;;;;;;;6.30;5.80;;;;;;;30.27;56.26;100376.18;83708;287;137271;-64
2023/08/21 07:03:27;;;;;;;5.40;5.10;;;;;;;30.33;55.76;100376.95;83832;288;25138;-69
2023/08/21 07:05:29;;;;;;;5.60;5.30;;;;;;;30.39;55.11;100372.45;83766;288;136093;-69
2023/08/21 07:07:31;;;;;;;5.80;5.10;;;;;;;30.46;54.91;100373.89;83809;288;22590;-65
2023/08/21 07:09:32;;;;;;;5.40;4.90;;;;;;;30.59;54.15;100372.95;83735;288;135964;-70
2023/08/21 07:11:34;;;;;;;6.90;5.30;;;;;;;30.61;53.16;100373.06;83870;287;22570;-69
2023/08/21 07:13:37;;;;;;;6.10;5.60;;;;;;;30.46;53.83;100376.41;83787;288;136032;-69
2023/08/21 07:15:38;;;;;;;5.90;5.50;;;;;;;30.33;54.71;100376.19;84064;287;22568;-68
2023/08/21 07:17:41;;;;;;;6.00;5.50;;;;;;;30.29;54.18;100377.45;83830;287;136114;-68
2023/08/21 07:19:43;;;;;;;6.60;6.30;;;;;;;30.21;54.12;100372.80;84074;287;24103;-69
2023/08/21 07:21:48;;;;;;;5.90;5.60;;;;;;;30.04;55.16;100372.89;83829;287;135985;-70
2023/08/21 07:23:50;;;;;;;6.50;6.00;;;;;;;29.94;56.10;100371.42;83850;288;22583;-69
2023/08/21 07:25:52;;;;;;;6.20;5.80;;;;;;;29.91;55.79;100370.83;83487;288;135921;-65
2023/08/21 07:27:54;;;;;;;6.40;6.00;;;;;;;29.89;55.87;100371.06;83556;280;25206;-69
2023/08/21 07:29:56;;;;;;;5.70;5.40;;;;;;;29.83;55.72;100368.26;86602;288;136688;-70
2023/08/21 07:31:58;;;;;;;5.60;5.20;;;;;;;29.80;55.73;100369.11;86660;288;23446;-68
2023/08/21 07:34:00;;;;;;;5.60;4.40;;;;;;;29.82;55.29;100371.26;84884;288;137591;-68
2023/08/21 07:36:05;;;;;;;7.80;5.40;;;;;;;29.85;54.99;100366.39;86661;288;22282;-69
2023/08/21 07:38:06;;;;;;;;;;;;;;;29.84;54.93;100370.36;85576;286;22594;-68
2023/08/21 07:40:08;;;;;;;6.00;5.30;;;;;;;29.81;55.07;100371.13;83434;288;122557;-67
2023/08/21 07:42:13;;;;;;;9.50;5.60;;;;;;;29.78;55.08;100369.95;83545;289;24893;-70
2023/08/21 07:44:14;;;;;;;6.20;5.60;;;;;;;29.75;54.96;100370.29;83481;289;137434;-68
2023/08/21 07:46:18;;;;;;;5.30;4.90;;;;;;;29.72;55.38;100369.02;83628;290;22557;-68
2023/08/21 07:48:20;;;;;;;6.30;5.70;;;;;;;29.72;55.22;100367.10;83592;289;136077;-67
2023/08/21 07:50:22;;;;;;;6.20;5.70;;;;;;;29.69;55.47;100372.73;83598;289;22564;-67
2023/08/21 07:52:23;;;;;;;6.00;5.40;;;;;;;29.66;55.62;100366.44;83546;289;137481;-69
2023/08/21 07:54:25;;;;;;;6.60;5.20;;;;;;;29.62;55.42;100365.94;84170;289;22585;-69
2023/08/21 07:56:27;;;;;;;7.50;5.70;;;;;;;29.60;55.47;100365.98;83605;288;136922;-67
2023/08/21 07:58:30;;;;;;;6.00;5.60;;;;;;;29.60;55.73;100359.66;83759;289;24139;-68
2023/08/21 08:00:32;;;;;;;6.20;5.70;;;;;;;29.62;55.63;100362.16;83684;288;136685;-68
2023/08/21 08:02:35;;;;;;;6.10;5.70;;;;;;;29.63;55.77;100363.06;83871;288;22622;-68
2023/08/21 08:04:37;;;;;;;9.20;6.80;;;;;;;29.66;55.64;100363.23;83692;288;135925;-69
2023/08/21 08:06:38;;;;;;;6.60;6.10;;;;;;;29.69;55.72;100358.34;83745;290;23682;-68
2023/08/21 08:08:40;;;;;;;5.90;5.50;;;;;;;29.69;55.86;100360.25;83697;289;135723;-70
2023/08/21 08:10:43;;;;;;;5.60;5.20;;;;;;;29.71;55.81;100358.68;83807;289;24102;-68
2023/08/21 08:12:44;;;;;;;7.20;6.70;;;;;;;29.72;55.49;100356.29;83551;290;135584;-68
2023/08/21 08:14:46;;;;;;;6.30;5.70;;;;;;;29.73;55.92;100360.99;83806;287;25261;-68
2023/08/21 08:16:48;;;;;;;6.80;6.30;;;;;;;29.76;55.75;100356.66;83812;257;135933;-69
2023/08/21 08:18:50;;;;;;;5.70;5.40;;;;;;;29.78;55.99;100355.83;83959;286;25227;-67
2023/08/21 08:20:52;;;;;;;4.90;4.70;;;;;;;29.83;55.72;100351.29;83886;286;136170;-68
2023/08/21 08:22:54;;;;;;;5.20;4.70;;;;;;;29.89;54.91;100352.86;84129;275;25238;-69
2023/08/21 08:24:56;;;;;;;5.90;4.80;;;;;;;29.92;54.45;100351.90;83841;286;149867;-67
2023/08/21 08:26:58;;;;;;;4.90;4.70;;;;;;;29.96;54.07;100352.69;83913;286;25165;-69
2023/08/21 08:29:00;;;;;;;6.00;5.00;;;;;;;30.01;54.56;100355.55;83857;286;136130;-68
2023/08/21 08:31:02;;;;;;;5.30;4.80;;;;;;;30.05;54.42;100353.23;83980;286;26801;-68
2023/08/21 08:33:04;;;;;;;4.90;4.50;;;;;;;30.12;54.35;100350.23;83830;288;136093;-68
2023/08/21 08:35:07;;;;;;;6.80;4.70;;;;;;;30.20;54.17;100353.46;84008;287;25187;-70
2023/08/21 08:37:09;;;;;;;6.20;4.90;;;;;;;30.18;53.60;100348.80;83831;286;137884;-69
2023/08/21 08:39:11;;;;;;;5.50;4.90;;;;;;;30.21;53.48;100354.77;83843;286;26204;-69
2023/08/21 08:41:41;;;;;;;4.40;4.00;;;;;;;30.18;53.73;100350.23;83782;286;135821;-68
2023/08/21 08:43:45;;;;;;;5.80;4.40;;;;;;;30.18;54.03;100346.83;83829;286;22550;-68
2023/08/21 08:45:49;;;;;;;5.40;4.90;;;;;;;30.18;53.57;100348.48;83800;275;136549;-68
2023/08/21 08:47:51;;;;;;;4.60;4.40;;;;;;;30.18;53.63;100348.02;84062;287;22556;-69
2023/08/21 08:52:38;;;;;;;9.30;4.10;;;;;;;30.30;53.70;100341.37;83794;286;135994;-69
2023/08/21 08:54:41;;;;;;;4.20;3.90;;;;;;;30.41;52.80;100346.70;83877;285;24063;-68
2023/08/21 08:56:43;;;;;;;3.90;3.60;;;;;;;30.45;52.18;100341.02;83775;285;136433;-67
2023/08/21 08:58:47;;;;;;;4.20;3.70;;;;;;;30.50;52.22;100341.67;84317;285;22552;-69
2023/08/21 09:00:49;;;;;;;3.80;3.60;;;;;;;30.50;52.52;100339.34;83913;285;137096;-68
2023/08/21 09:02:51;;;;;;;4.60;3.40;;;;;;;30.53;51.03;100342.73;84045;285;22554;-69
2023/08/21 09:04:53;;;;;;;5.50;3.20;;;;;;;30.53;51.19;100337.17;83928;285;136901;-69
2023/08/21 09:07:09;;;;;;;4.50;4.10;;;;;;;30.51;51.75;100333.48;84010;285;24055;-67
2023/08/21 09:09:12;;;;;;;4.00;3.80;;;;;;;30.48;51.83;100335.48;83947;285;136178;-68
2023/08/21 09:11:17;;;;;;;4.40;4.00;;;;;;;30.51;52.24;100331.02;83984;285;25268;-67
2023/08/21 09:13:20;;;;;;;6.90;4.20;;;;;;;30.55;51.17;100334.61;84012;285;136246;-69
2023/08/21 09:15:28;;;;;;;3.80;3.60;;;;;;;30.51;50.56;100323.35;84009;286;24197;-69
2023/08/21 09:17:42;;;;;;;4.00;3.70;;;;;;;30.53;50.02;100332.44;83950;285;136240;-69
2023/08/21 09:19:44;;;;;;;3.00;2.80;;;;;;;30.46;48.80;100336.31;83922;285;22777;-68
2023/08/21 09:21:49;;;;;;;3.10;2.80;;;;;;;30.39;47.44;100333.95;83858;285;135977;-69
2023/08/21 09:23:58;;;;;;;3.30;2.80;;;;;;;30.32;48.15;100328.48;83951;288;26770;-69
2023/08/21 09:26:02;;;;;;;3.20;2.50;;;;;;;30.33;48.26;100330.79;83853;286;137322;-69
2023/08/21 09:28:05;;;;;;;4.40;2.30;;;;;;;30.39;47.86;100334.44;83769;286;138660;-67
2023/08/21 09:30:15;;;;;;;4.80;2.30;;;;;;;30.44;46.59;100333.02;84016;286;22577;-68
2023/08/21 09:32:17;;;;;;;3.00;2.10;;;;;;;30.49;45.18;100331.17;83909;285;142334;-67
2023/08/21 09:34:18;;;;;;;3.50;3.20;;;;;;;30.47;44.58;100328.65;84019;286;22940;-66
2023/08/21 09:36:20;;;;;;;2.90;2.70;;;;;;;30.43;45.68;100322.06;83868;286;135929;-64
2023/08/21 09:38:26;;;;;;;2.10;1.90;;;;;;;30.39;45.94;100319.98;83892;285;22584;-65
2023/08/21 09:40:28;;;;;;;5.00;2.00;;;;;;;30.42;45.37;100318.36;84006;285;137752;-69